Time;durP1;ratioP1;P1;durP2;ratioP2;P2;SDS_P1;SDS_P2;PMS_P1;PMS_P2;Temp;Humidity;BMP_temperature;BMP_pressure;BME280_temperature;BME280_humidity;BME280_pressure;Samples;Min_cycle;Max_cycle;Signal;HPM_P1;HPM_P2
2021/01/02 00:00:07;;;;;;;36.37;13.07;;;6.00;61.30;;;;;;5049079;28;20512;-41
2021/01/02 00:03:02;;;;;;;34.87;12.53;;;6.10;61.30;;;;;;5047919;28;20438;-41
2021/01/02 00:05:44;;;;;;;26.57;12.67;;;6.20;61.00;;;;;;5047234;28;20447;-41
2021/01/02 00:08:19;;;;;;;22.90;12.10;;;6.10;61.00;;;;;;5049361;28;20926;-41
2021/01/02 00:11:28;;;;;;;30.67;11.80;;;6.20;61.00;;;;;;5047443;28;20474;-41
2021/01/02 00:14:12;;;;;;;46.40;11.90;;;6.20;60.90;;;;;;4964847;28;20470;-41
2021/01/02 00:16:56;;;;;;;15.67;10.90;;;6.10;60.40;;;;;;5042539;28;20446;-41
2021/01/02 00:19:41;;;;;;;64.13;12.53;;;6.20;60.50;;;;;;5048797;28;20476;-41
2021/01/02 00:22:11;;;;;;;53.53;12.00;;;6.10;59.80;;;;;;5045497;28;20767;-41
2021/01/02 00:24:55;;;;;;;29.93;10.83;;;6.00;60.30;;;;;;5049870;28;20486;-41
2021/01/02 00:27:28;;;;;;;29.07;10.60;;;6.00;60.20;;;;;;5047396;28;20526;-41
2021/01/02 00:30:04;;;;;;;22.50;11.67;;;5.90;60.50;;;;;;5048717;28;21828;-41
2021/01/02 00:32:55;;;;;;;20.50;11.30;;;5.80;61.50;;;;;;5048966;28;20985;-41
2021/01/02 00:35:22;;;;;;;29.23;10.87;;;5.90;61.60;;;;;;5050509;28;20447;-41
2021/01/02 00:37:47;;;;;;;21.20;11.67;;;5.80;61.60;;;;;;5044601;28;20856;-41
2021/01/02 00:40:16;;;;;;;24.50;11.80;;;5.70;62.20;;;;;;5047620;28;20470;-41
2021/01/02 00:42:44;;;;;;;18.30;10.47;;;5.60;62.40;;;;;;5045306;28;20266;-41
2021/01/02 00:45:18;;;;;;;26.00;12.70;;;5.60;62.60;;;;;;5049597;28;20884;-41
2021/01/02 00:47:44;;;;;;;15.70;10.57;;;5.50;62.70;;;;;;5045404;28;20454;-41
2021/01/02 00:50:15;;;;;;;13.90;10.10;;;5.50;62.70;;;;;;5049925;28;20454;-41
2021/01/02 00:53:05;;;;;;;21.47;9.63;;;5.50;62.50;;;;;;5048127;28;20577;-41
2021/01/02 00:55:57;;;;;;;32.23;10.53;;;5.60;62.00;;;;;;5046775;28;20447;-41
2021/01/02 00:58:43;;;;;;;15.77;9.37;;;5.70;61.70;;;;;;5041590;28;20617;-41
2021/01/02 01:01:16;;;;;;;23.23;10.60;;;5.60;62.20;;;;;;5048248;28;20489;-41
2021/01/02 01:04:19;;;;;;;15.63;10.60;;;5.70;61.60;;;;;;5049877;28;20630;-41
2021/01/02 01:06:48;;;;;;;16.13;10.87;;;5.80;61.00;;;;;;5047616;28;20435;-41
2021/01/02 01:09:14;;;;;;;19.83;11.07;;;5.90;61.10;;;;;;5048096;28;20447;-41
2021/01/02 01:11:45;;;;;;;20.13;11.20;;;5.80;60.90;;;;;;5047275;28;20473;-41
2021/01/02 01:14:11;;;;;;;16.07;10.63;;;5.80;61.40;;;;;;5049070;28;20457;-41
2021/01/02 01:16:44;;;;;;;28.20;12.10;;;5.90;61.30;;;;;;5048717;28;20482;-41
2021/01/02 01:19:15;;;;;;;25.80;10.67;;;6.00;60.90;;;;;;5047421;28;20447;-41
2021/01/02 01:21:45;;;;;;;21.23;9.53;;;5.80;60.90;;;;;;5049346;28;20517;-41
2021/01/02 01:24:17;;;;;;;32.20;12.40;;;5.70;61.90;;;;;;5046109;28;20431;-41
2021/01/02 01:26:43;;;;;;;31.87;11.00;;;5.70;62.10;;;;;;5047814;28;21238;-41
2021/01/02 01:29:27;;;;;;;19.43;11.70;;;5.60;62.20;;;;;;5049668;28;20443;-41
2021/01/02 01:31:57;;;;;;;21.13;10.30;;;5.50;62.40;;;;;;5046289;28;20220;-41
2021/01/02 01:34:25;;;;;;;22.90;11.53;;;5.60;61.80;;;;;;5045967;28;20450;-41
2021/01/02 01:36:51;;;;;;;15.43;10.70;;;5.70;61.90;;;;;;5046312;28;20436;-41
2021/01/02 01:39:20;;;;;;;15.77;10.17;;;5.90;61.80;;;;;;5048011;28;20441;-41
2021/01/02 01:41:51;;;;;;;18.63;10.13;;;5.90;61.60;;;;;;5047340;28;20483;-41
2021/01/02 01:44:43;;;;;;;15.67;10.90;;;5.80;60.50;;;;;;5047659;28;20451;-41
2021/01/02 01:47:17;;;;;;;11.90;8.97;;;5.80;61.30;;;;;;5046416;28;20902;-41
2021/01/02 01:49:58;;;;;;;13.63;9.70;;;5.90;61.10;;;;;;5047198;28;20455;-41
2021/01/02 01:52:59;;;;;;;9.77;8.60;;;6.00;60.80;;;;;;5044968;28;20486;-41
2021/01/02 01:55:52;;;;;;;14.13;9.50;;;5.90;60.90;;;;;;5025011;28;20461;-41
2021/01/02 01:58:45;;;;;;;14.93;9.87;;;6.00;60.70;;;;;;5043301;28;20455;-41
2021/01/02 02:01:15;;;;;;;13.20;10.00;;;6.20;60.50;;;;;;5044972;28;20451;-41
2021/01/02 02:04:10;;;;;;;23.10;10.50;;;6.20;60.30;;;;;;5046412;28;20438;-41
2021/01/02 02:06:51;;;;;;;21.30;11.13;;;6.20;59.70;;;;;;5042927;28;20513;-41
2021/01/02 02:09:21;;;;;;;20.20;10.37;;;6.00;60.40;;;;;;5046559;28;20430;-41
2021/01/02 02:12:03;;;;;;;18.70;10.60;;;5.90;60.60;;;;;;5044237;28;20972;-41
2021/01/02 02:14:43;;;;;;;18.40;10.33;;;5.90;60.80;;;;;;5040643;28;20527;-41
2021/01/02 02:17:17;;;;;;;15.47;10.17;;;6.00;60.70;;;;;;5047653;28;20434;-41
2021/01/02 02:20:08;;;;;;;14.93;9.27;;;6.10;60.50;;;;;;5049730;28;20941;-41
2021/01/02 02:22:40;;;;;;;14.83;9.27;;;6.00;60.20;;;;;;5033878;28;20541;-41
2021/01/02 02:25:09;;;;;;;19.23;10.10;;;5.80;61.20;;;;;;5045996;28;20427;-41
2021/01/02 02:27:40;;;;;;;18.50;10.50;;;5.50;61.90;;;;;;5046772;28;20489;-41
2021/01/02 02:30:16;;;;;;;24.43;11.60;;;5.70;63.10;;;;;;5049371;28;20526;-41
2021/01/02 02:32:47;;;;;;;22.20;12.17;;;5.60;61.70;;;;;;5047354;28;20493;-41
2021/01/02 02:35:15;;;;;;;15.27;9.93;;;5.40;62.40;;;;;;5049751;28;21261;-41
2021/01/02 02:37:47;;;;;;;27.43;10.83;;;5.50;62.60;;;;;;5046522;28;20946;-41
2021/01/02 02:40:17;;;;;;;25.27;11.30;;;5.60;62.40;;;;;;5044517;28;20546;-41
2021/01/02 02:43:04;;;;;;;19.43;11.17;;;5.70;62.30;;;;;;5047888;28;20445;-41
2021/01/02 02:45:31;;;;;;;23.87;11.10;;;5.60;62.60;;;;;;5045137;28;20477;-41
2021/01/02 02:48:00;;;;;;;17.33;10.03;;;5.70;62.50;;;;;;5045228;28;20493;-41
2021/01/02 02:50:27;;;;;;;22.47;11.03;;;5.80;62.30;;;;;;5050771;28;20949;-41
2021/01/02 02:53:06;;;;;;;18.63;9.60;;;6.00;62.20;;;;;;5052315;28;21043;-41
2021/01/02 02:55:39;;;;;;;22.40;9.90;;;5.80;61.00;;;;;;5046848;28;20450;-41
2021/01/02 02:58:06;;;;;;;18.80;10.80;;;5.80;61.90;;;;;;5049566;28;20455;-41
2021/01/02 03:00:32;;;;;;;15.77;10.50;;;5.90;61.80;;;;;;5050624;28;20446;-41
2021/01/02 03:02:58;;;;;;;24.40;10.97;;;6.00;61.40;;;;;;5052095;28;20441;-41
2021/01/02 03:05:24;;;;;;;15.70;9.83;;;6.10;61.30;;;;;;5044484;28;20434;-41
2021/01/02 03:07:50;;;;;;;20.10;11.90;;;6.20;61.30;;;;;;5045997;28;20254;-41
2021/01/02 03:10:18;;;;;;;19.27;11.50;;;6.40;61.20;;;;;;5050418;28;20196;-41
2021/01/02 03:12:45;;;;;;;21.43;10.17;;;6.30;61.50;;;;;;5051327;28;20497;-41
2021/01/02 03:15:13;;;;;;;19.10;10.07;;;6.30;60.70;;;;;;5049287;28;20431;-41
2021/01/02 03:17:43;;;;;;;27.80;9.87;;;6.20;60.80;;;;;;5047822;28;20449;-41
2021/01/02 03:20:10;;;;;;;19.03;10.40;;;6.20;60.70;;;;;;5051435;28;20477;-41
2021/01/02 03:22:44;;;;;;;24.23;10.53;;;6.10;60.40;;;;;;5048739;28;20453;-41
2021/01/02 03:25:11;;;;;;;18.20;10.80;;;5.90;61.30;;;;;;5051178;28;20934;-41
2021/01/02 03:27:38;;;;;;;21.67;10.83;;;5.80;61.80;;;;;;5046401;28;20443;-41
2021/01/02 03:30:05;;;;;;;24.47;10.90;;;5.80;62.30;;;;;;5050741;28;20435;-41
2021/01/02 03:32:31;;;;;;;27.27;10.47;;;6.00;62.10;;;;;;5048124;28;20490;-41
2021/01/02 03:34:57;;;;;;;20.03;9.93;;;6.00;61.90;;;;;;5047220;28;20438;-41
2021/01/02 03:37:24;;;;;;;19.90;11.10;;;6.20;61.90;;;;;;5047727;28;20220;-41
2021/01/02 03:39:50;;;;;;;21.13;11.97;;;6.10;61.60;;;;;;5048011;28;20216;-41
2021/01/02 03:42:15;;;;;;;22.20;12.07;;;6.20;61.40;;;;;;5049640;28;20938;-41
2021/01/02 03:44:41;;;;;;;17.93;10.80;;;6.30;61.10;;;;;;5049646;28;20295;-41
2021/01/02 03:47:08;;;;;;;19.97;9.50;;;6.40;60.70;;;;;;5047630;28;20207;-41
2021/01/02 03:49:34;;;;;;;18.57;9.83;;;6.40;60.50;;;;;;5050754;28;20189;-41
2021/01/02 03:52:04;;;;;;;20.83;10.47;;;6.40;60.40;;;;;;5048904;28;20613;-41
2021/01/02 03:54:31;;;;;;;19.23;10.00;;;6.50;60.20;;;;;;5045336;28;20477;-41
2021/01/02 03:56:56;;;;;;;20.70;10.63;;;6.50;60.60;;;;;;5048766;28;20438;-41
2021/01/02 03:59:22;;;;;;;20.07;9.90;;;6.50;60.00;;;;;;5051301;28;20517;-41
2021/01/02 04:02:00;;;;;;;14.90;9.40;;;6.60;60.00;;;;;;5049960;28;20250;-41
2021/01/02 04:04:27;;;;;;;18.90;10.97;;;6.60;59.90;;;;;;5049408;28;20533;-41
2021/01/02 04:06:53;;;;;;;30.03;10.37;;;6.50;59.70;;;;;;5048971;28;20480;-41
2021/01/02 04:09:20;;;;;;;24.03;10.00;;;6.50;60.00;;;;;;5044735;28;20855;-41
2021/01/02 04:11:46;;;;;;;19.70;9.53;;;6.50;59.70;;;;;;5048488;28;20502;-41
2021/01/02 04:14:12;;;;;;;18.27;9.70;;;6.40;59.70;;;;;;5050718;28;20427;-41
2021/01/02 04:16:39;;;;;;;23.43;9.37;;;6.40;59.80;;;;;;5057845;28;20435;-41
2021/01/02 04:19:05;;;;;;;14.27;9.30;;;6.40;59.90;;;;;;5049895;28;20493;-41
2021/01/02 04:21:31;;;;;;;14.57;9.13;;;6.40;59.80;;;;;;5048237;28;20455;-41
2021/01/02 04:23:57;;;;;;;14.90;9.50;;;6.30;59.60;;;;;;5046805;28;20435;-41
2021/01/02 04:26:24;;;;;;;16.37;8.83;;;6.30;59.80;;;;;;5047555;28;20964;-41
2021/01/02 04:28:51;;;;;;;14.87;10.00;;;6.40;59.50;;;;;;5040733;28;20526;-41
2021/01/02 04:31:19;;;;;;;14.73;9.40;;;6.40;60.10;;;;;;5044401;28;20431;-41
2021/01/02 04:33:45;;;;;;;14.20;10.23;;;6.40;59.40;;;;;;5050674;28;20510;-41
2021/01/02 04:36:16;;;;;;;14.10;8.60;;;6.40;59.40;;;;;;5049882;28;20930;-41
2021/01/02 04:38:43;;;;;;;12.87;8.60;;;6.30;58.90;;;;;;5049675;28;20435;-41
2021/01/02 04:41:12;;;;;;;13.43;9.17;;;6.10;59.00;;;;;;5044780;28;21007;-41
2021/01/02 04:43:37;;;;;;;12.50;9.50;;;6.20;59.60;;;;;;5049229;28;20456;-41
2021/01/02 04:46:04;;;;;;;12.20;9.00;;;6.00;59.30;;;;;;5050678;28;20419;-41
2021/01/02 04:48:30;;;;;;;12.50;8.77;;;6.10;59.90;;;;;;5047974;28;20275;-41
2021/01/02 04:50:56;;;;;;;14.20;9.17;;;6.10;59.70;;;;;;5048726;28;20514;-41
2021/01/02 04:53:22;;;;;;;12.40;7.90;;;6.00;59.40;;;;;;5045802;28;20311;-41
2021/01/02 04:55:49;;;;;;;11.20;8.17;;;6.00;59.90;;;;;;5044351;28;20193;-41
2021/01/02 04:58:15;;;;;;;11.20;8.60;;;6.10;60.10;;;;;;5047078;28;20781;-41
2021/01/02 05:00:42;;;;;;;10.80;8.30;;;6.20;60.00;;;;;;5044216;28;21157;-41
2021/01/02 05:03:08;;;;;;;12.87;8.80;;;6.30;59.70;;;;;;5047021;28;20458;-41
2021/01/02 05:05:37;;;;;;;10.37;7.87;;;6.30;58.90;;;;;;5051195;28;20853;-41
2021/01/02 05:08:03;;;;;;;11.57;7.97;;;6.30;59.70;;;;;;5046411;28;20889;-41
2021/01/02 05:10:29;;;;;;;11.80;8.20;;;6.40;59.20;;;;;;5047696;28;20443;-41
2021/01/02 05:13:12;;;;;;;13.13;8.67;;;6.50;59.10;;;;;;5043846;28;20490;-41
2021/01/02 05:15:37;;;;;;;13.27;9.07;;;6.50;59.00;;;;;;5046837;28;20201;-41
2021/01/02 05:18:03;;;;;;;11.23;9.07;;;6.50;58.80;;;;;;5046869;28;20525;-41
2021/01/02 05:20:29;;;;;;;13.90;9.40;;;6.50;59.00;;;;;;5049102;28;20192;-41
2021/01/02 05:23:06;;;;;;;15.90;10.00;;;6.50;58.80;;;;;;5044983;28;20196;-41
2021/01/02 05:25:31;;;;;;;13.83;9.17;;;6.60;58.90;;;;;;5040834;28;20446;-41
2021/01/02 05:27:57;;;;;;;15.50;9.77;;;6.60;58.80;;;;;;5037410;28;20470;-41
2021/01/02 05:30:28;;;;;;;15.17;9.77;;;6.60;58.70;;;;;;5044350;28;20205;-41
2021/01/02 05:32:57;;;;;;;15.90;10.27;;;6.60;58.50;;;;;;5044711;28;20232;-41
2021/01/02 05:35:23;;;;;;;15.60;10.00;;;6.60;58.60;;;;;;5040843;28;20485;-41
2021/01/02 05:37:49;;;;;;;15.33;9.40;;;6.60;58.50;;;;;;5040971;28;20435;-41
2021/01/02 05:40:32;;;;;;;14.73;9.87;;;6.60;58.60;;;;;;5043769;28;22154;-41
2021/01/02 05:42:59;;;;;;;16.43;10.87;;;6.60;58.80;;;;;;5049005;28;20190;-41
2021/01/02 05:45:27;;;;;;;16.30;9.40;;;6.60;58.80;;;;;;5046128;28;20467;-41
2021/01/02 05:47:56;;;;;;;16.27;10.97;;;6.60;58.90;;;;;;5048577;28;20456;-41
2021/01/02 05:50:23;;;;;;;15.03;9.60;;;6.70;58.90;;;;;;5047877;28;20443;-41
2021/01/02 05:52:50;;;;;;;14.27;10.37;;;6.60;58.80;;;;;;5047336;28;20474;-41
2021/01/02 05:55:29;;;;;;;17.47;9.90;;;6.50;58.70;;;;;;5039510;28;20439;-41
2021/01/02 05:57:54;;;;;;;17.80;10.13;;;6.30;58.70;;;;;;5043113;28;20450;-41
2021/01/02 06:00:22;;;;;;;18.10;11.60;;;6.30;59.30;;;;;;5047299;28;20443;-41
2021/01/02 06:02:48;;;;;;;14.57;10.60;;;6.30;59.50;;;;;;5049282;28;20223;-41
2021/01/02 06:05:14;;;;;;;16.27;10.63;;;6.40;59.40;;;;;;5049623;28;20467;-41
2021/01/02 06:07:48;;;;;;;15.03;9.93;;;6.50;59.60;;;;;;5046625;28;20201;-41
2021/01/02 06:10:14;;;;;;;10.70;7.37;;;6.50;59.40;;;;;;5047229;28;21205;-41
2021/01/02 06:12:42;;;;;;;21.93;11.37;;;6.60;59.30;;;;;;5048050;28;20486;-41
2021/01/02 06:15:15;;;;;;;17.13;9.63;;;6.80;60.90;;;;;;5046687;28;20200;-41
2021/01/02 06:17:48;;;;;;;16.27;10.50;;;7.20;61.90;;;;;;5046902;28;20443;-41
2021/01/02 06:20:16;;;;;;;17.13;8.80;;;7.50;61.80;;;;;;5044747;28;20443;-41
2021/01/02 06:22:42;;;;;;;13.77;7.63;;;7.80;61.20;;;;;;5048637;28;20509;-41
2021/01/02 06:25:13;;;;;;;13.37;8.70;;;8.10;60.20;;;;;;5056810;28;20442;-41
2021/01/02 06:27:40;;;;;;;14.70;8.90;;;8.30;59.60;;;;;;5050877;28;20435;-41
2021/01/02 06:30:06;;;;;;;13.37;10.10;;;8.60;59.00;;;;;;5048574;28;20455;-42
2021/01/02 06:32:32;;;;;;;13.17;9.90;;;8.80;58.10;;;;;;5052043;28;20945;-41
2021/01/02 06:35:10;;;;;;;12.60;9.33;;;8.90;56.30;;;;;;5053514;28;20457;-41
2021/01/02 06:37:48;;;;;;;12.03;8.93;;;9.00;55.00;;;;;;5052840;28;20187;-41
2021/01/02 06:40:38;;;;;;;9.67;8.03;;;9.00;54.50;;;;;;5057963;28;20484;-42
2021/01/02 06:43:10;;;;;;;14.33;10.03;;;9.10;54.20;;;;;;5045393;28;20599;-41
2021/01/02 06:45:35;;;;;;;12.50;8.13;;;9.20;54.00;;;;;;5052673;28;20435;-41
2021/01/02 06:48:13;;;;;;;13.80;9.93;;;9.30;53.60;;;;;;5052097;28;20431;-42
2021/01/02 06:50:46;;;;;;;12.80;9.00;;;9.30;53.10;;;;;;5053448;28;20192;-41
2021/01/02 06:53:22;;;;;;;15.13;10.07;;;9.40;53.10;;;;;;5041445;28;20953;-41
2021/01/02 06:56:00;;;;;;;15.37;9.60;;;9.40;53.20;;;;;;5052922;28;20575;-41
2021/01/02 06:58:42;;;;;;;14.93;10.53;;;9.50;53.00;;;;;;5052723;28;20805;-41
2021/01/02 07:01:29;;;;;;;14.23;10.37;;;9.50;52.70;;;;;;5049694;28;20443;-41
2021/01/02 07:03:55;;;;;;;14.80;10.20;;;9.60;52.70;;;;;;5052896;28;20457;-42
2021/01/02 07:06:22;;;;;;;11.87;9.33;;;9.70;52.60;;;;;;5053208;28;20439;-42
2021/01/02 07:09:14;;;;;;;12.77;9.37;;;9.70;52.70;;;;;;5052030;28;20439;-41
2021/01/02 07:11:43;;;;;;;14.27;9.30;;;9.80;52.70;;;;;;5044437;28;20478;-41
2021/01/02 07:14:08;;;;;;;15.40;10.63;;;9.80;52.30;;;;;;5051566;28;20941;-42
2021/01/02 07:17:01;;;;;;;13.60;10.13;;;9.80;52.20;;;;;;5052388;28;20435;-44
2021/01/02 07:19:44;;;;;;;14.93;10.77;;;9.70;52.00;;;;;;5051179;28;20517;-42
2021/01/02 07:22:12;;;;;;;15.90;10.60;;;9.70;52.10;;;;;;5051920;28;20549;-42
2021/01/02 07:24:52;;;;;;;17.30;10.13;;;9.70;52.00;;;;;;5051503;28;20462;-42
2021/01/02 07:27:25;;;;;;;15.07;10.13;;;9.60;52.10;;;;;;5051149;28;20518;-41
2021/01/02 07:29:54;;;;;;;16.07;11.50;;;9.50;52.70;;;;;;5052821;28;20446;-42
2021/01/02 07:32:21;;;;;;;15.90;9.90;;;9.50;52.20;;;;;;5051935;28;20486;-41
2021/01/02 07:34:49;;;;;;;13.53;9.63;;;9.40;52.40;;;;;;5051332;28;20423;-41
2021/01/02 07:37:17;;;;;;;12.70;9.50;;;9.40;52.30;;;;;;5049558;28;20526;-41
2021/01/02 07:40:13;;;;;;;12.37;9.10;;;9.40;52.50;;;;;;5054111;28;20850;-41
2021/01/02 07:42:41;;;;;;;11.90;8.40;;;9.50;52.00;;;;;;5037724;28;20459;-41
2021/01/02 07:45:11;;;;;;;14.50;10.57;;;9.50;51.80;;;;;;5052476;28;20918;-42
2021/01/02 07:47:38;;;;;;;13.30;10.20;;;9.50;52.60;;;;;;5050572;28;20458;-41
2021/01/02 07:50:11;;;;;;;12.60;8.93;;;9.60;52.70;;;;;;5057373;28;20439;-41
2021/01/02 07:52:58;;;;;;;17.87;11.93;;;9.60;52.50;;;;;;5052279;28;20532;-41
2021/01/02 07:55:28;;;;;;;12.63;10.40;;;9.70;52.20;;;;;;5052674;28;20435;-41
2021/01/02 07:57:55;;;;;;;14.20;10.80;;;9.70;52.00;;;;;;5051161;28;20526;-41
2021/01/02 08:00:22;;;;;;;10.57;8.83;;;9.80;51.90;;;;;;5052611;28;20458;-41
2021/01/02 08:02:48;;;;;;;14.80;10.30;;;9.90;52.00;;;;;;5052255;28;20412;-41
2021/01/02 08:05:14;;;;;;;13.27;10.60;;;9.90;51.70;;;;;;5052782;28;20423;-41
2021/01/02 08:07:41;;;;;;;12.03;10.27;;;10.00;50.60;;;;;;5051090;28;20541;-41
2021/01/02 08:10:12;;;;;;;12.97;10.90;;;10.00;50.30;;;;;;5052472;28;20442;-41
2021/01/02 08:12:46;;;;;;;13.47;10.30;;;10.00;50.10;;;;;;5051824;28;20479;-41
2021/01/02 08:15:17;;;;;;;11.57;9.23;;;10.00;50.50;;;;;;5050692;28;20418;-41
2021/01/02 08:17:43;;;;;;;14.10;9.20;;;10.00;50.40;;;;;;5050746;28;20488;-42
2021/01/02 08:20:09;;;;;;;12.40;10.33;;;10.00;50.40;;;;;;5070436;28;20418;-41
2021/01/02 08:22:36;;;;;;;12.07;10.57;;;10.00;50.10;;;;;;5071514;28;20442;-41
2021/01/02 08:25:05;;;;;;;14.50;10.20;;;10.00;50.00;;;;;;5072130;28;20553;-41
2021/01/02 08:27:35;;;;;;;10.43;8.67;;;10.10;50.10;;;;;;5070904;28;20426;-41
2021/01/02 08:30:03;;;;;;;11.80;10.20;;;10.10;50.20;;;;;;5059764;28;20426;-41
2021/01/02 08:32:35;;;;;;;11.60;9.50;;;10.00;49.70;;;;;;5071352;28;20845;-41
2021/01/02 08:35:01;;;;;;;10.30;8.57;;;9.90;50.70;;;;;;5072031;28;20437;-41
2021/01/02 08:37:27;;;;;;;12.50;9.70;;;9.90;50.90;;;;;;5070804;28;20422;-41
2021/01/02 08:40:06;;;;;;;11.97;10.53;;;9.90;51.00;;;;;;5066581;28;20665;-41
2021/01/02 08:42:38;;;;;;;11.37;9.40;;;9.90;51.10;;;;;;5054383;28;20958;-41
2021/01/02 08:45:09;;;;;;;13.57;9.77;;;9.90;51.20;;;;;;5071833;28;20449;-41
2021/01/02 08:47:39;;;;;;;12.87;9.80;;;9.90;51.20;;;;;;5070270;28;20422;-41
2021/01/02 08:50:15;;;;;;;15.50;11.33;;;9.90;51.20;;;;;;5054823;28;20447;-41
2021/01/02 08:52:42;;;;;;;14.87;10.17;;;9.90;51.20;;;;;;5051074;28;20872;-41
2021/01/02 08:55:11;;;;;;;17.10;11.07;;;9.90;51.20;;;;;;5051409;28;20415;-41
2021/01/02 08:57:47;;;;;;;16.30;11.50;;;9.90;51.40;;;;;;5057095;28;20479;-41
2021/01/02 09:00:14;;;;;;;16.47;10.80;;;9.90;51.50;;;;;;5067087;28;20815;-41
2021/01/02 09:02:45;;;;;;;16.10;11.40;;;9.90;52.00;;;;;;5070987;28;20426;-41
2021/01/02 09:05:15;;;;;;;21.07;12.17;;;10.00;51.10;;;;;;5071296;28;20505;-41
2021/01/02 09:08:11;;;;;;;21.53;12.30;;;10.00;50.90;;;;;;5070479;28;20468;-41
2021/01/02 09:10:41;;;;;;;19.57;12.57;;;10.00;50.50;;;;;;5065546;28;20697;-41
2021/01/02 09:13:21;;;;;;;28.73;19.10;;;10.00;50.70;;;;;;5063973;28;20554;-41
2021/01/02 09:16:13;;;;;;;19.70;12.37;;;9.90;51.50;;;;;;5071017;28;20483;-41
2021/01/02 09:18:40;;;;;;;19.20;12.30;;;9.80;51.40;;;;;;5059857;28;20431;-41
2021/01/02 09:21:06;;;;;;;17.10;10.83;;;9.80;51.60;;;;;;5050612;28;20472;-41
2021/01/02 09:23:33;;;;;;;18.23;12.23;;;9.80;51.80;;;;;;5060937;28;20431;-41
2021/01/02 09:25:59;;;;;;;15.83;11.10;;;9.80;52.10;;;;;;5070800;28;20639;-41
2021/01/02 09:28:25;;;;;;;15.00;11.07;;;9.80;51.90;;;;;;5070243;28;20429;-41
2021/01/02 09:30:51;;;;;;;16.13;11.33;;;9.80;52.10;;;;;;5071269;28;20631;-41
2021/01/02 09:33:17;;;;;;;14.80;11.63;;;9.90;52.00;;;;;;5067302;28;20663;-41
2021/01/02 09:35:47;;;;;;;19.60;13.00;;;9.90;51.90;;;;;;5070105;28;21330;-41
2021/01/02 09:38:13;;;;;;;19.87;13.50;;;9.80;51.80;;;;;;5069458;28;20509;-41
2021/01/02 09:40:41;;;;;;;16.00;10.90;;;9.80;52.30;;;;;;5070615;28;20466;-41
2021/01/02 09:43:11;;;;;;;11.83;10.60;;;9.80;52.10;;;;;;5049967;28;20506;-41
2021/01/02 09:45:36;;;;;;;14.90;11.80;;;9.90;52.30;;;;;;5044481;28;20484;-41
2021/01/02 09:48:02;;;;;;;16.30;11.70;;;9.90;52.40;;;;;;5057326;28;20913;-41
2021/01/02 09:50:28;;;;;;;13.93;10.47;;;10.00;51.50;;;;;;5051162;28;20234;-41
2021/01/02 09:52:54;;;;;;;17.67;11.50;;;10.00;51.40;;;;;;5049923;28;21012;-41
2021/01/02 09:55:19;;;;;;;15.30;10.00;;;10.00;51.30;;;;;;5051379;28;20197;-41
2021/01/02 09:57:49;;;;;;;15.33;11.17;;;9.90;52.20;;;;;;5049886;28;20283;-41
2021/01/02 10:00:15;;;;;;;14.70;10.67;;;9.90;52.20;;;;;;5050455;28;20195;-41
2021/01/02 10:02:41;;;;;;;15.33;11.20;;;9.90;52.10;;;;;;5050039;28;20783;-41
2021/01/02 10:05:07;;;;;;;13.10;10.23;;;9.90;52.30;;;;;;5048927;28;20431;-41
2021/01/02 10:07:33;;;;;;;12.70;9.87;;;9.90;52.50;;;;;;5049632;28;20227;-41
2021/01/02 10:09:58;;;;;;;12.80;10.00;;;9.90;52.30;;;;;;5050277;28;20427;-41
2021/01/02 10:12:24;;;;;;;13.03;9.80;;;9.90;53.10;;;;;;5049798;28;20572;-41
2021/01/02 10:14:50;;;;;;;14.03;11.00;;;9.90;52.30;;;;;;5050370;28;20311;-41
2021/01/02 10:17:16;;;;;;;15.37;10.67;;;9.90;52.40;;;;;;5049816;28;20220;-41
2021/01/02 10:19:43;;;;;;;12.17;8.90;;;9.90;52.50;;;;;;5049567;28;20188;-40
2021/01/02 10:22:09;;;;;;;13.00;11.03;;;9.90;52.50;;;;;;5049274;28;20518;-39
2021/01/02 10:24:35;;;;;;;15.80;11.07;;;10.00;51.60;;;;;;5048597;28;20435;-40
2021/01/02 10:27:02;;;;;;;12.70;9.70;;;10.10;51.30;;;;;;5047496;28;20427;-40
2021/01/02 10:29:27;;;;;;;15.10;11.50;;;10.10;51.50;;;;;;5048954;28;20192;-40
2021/01/02 10:32:02;;;;;;;12.70;10.07;;;10.20;51.70;;;;;;5047209;28;20483;-40
2021/01/02 10:34:27;;;;;;;14.70;9.90;;;10.20;51.90;;;;;;5047974;28;20628;-40
2021/01/02 10:36:53;;;;;;;14.90;11.80;;;10.30;52.20;;;;;;5048095;28;20455;-40
2021/01/02 10:39:19;;;;;;;13.50;11.50;;;10.30;52.10;;;;;;5050035;28;20279;-40
2021/01/02 10:41:46;;;;;;;15.43;11.50;;;10.40;52.00;;;;;;5048544;28;20483;-40
2021/01/02 10:44:13;;;;;;;14.07;11.03;;;10.50;51.90;;;;;;5044742;28;20940;-42
2021/01/02 10:46:50;;;;;;;12.43;10.30;;;10.60;51.50;;;;;;5044951;28;20446;-40
2021/01/02 10:49:19;;;;;;;15.23;11.60;;;10.60;51.30;;;;;;5046050;28;20438;-40
2021/01/02 10:51:45;;;;;;;16.00;12.00;;;10.60;50.90;;;;;;5048477;28;20466;-40
2021/01/02 10:54:13;;;;;;;14.17;11.40;;;10.10;50.20;;;;;;5049569;28;20502;-40
2021/01/02 10:56:49;;;;;;;12.80;10.27;;;10.00;51.40;;;;;;5048648;28;20431;-40
2021/01/02 10:59:16;;;;;;;14.27;11.03;;;10.10;52.10;;;;;;5047715;28;20790;-40
2021/01/02 11:01:47;;;;;;;15.30;12.13;;;10.10;52.00;;;;;;5047831;28;20427;-40
2021/01/02 11:04:15;;;;;;;13.60;10.63;;;10.30;52.00;;;;;;5055458;28;21161;-40
2021/01/02 11:06:42;;;;;;;16.60;12.33;;;10.30;51.90;;;;;;5051464;28;20430;-40
2021/01/02 11:09:10;;;;;;;15.27;11.43;;;10.50;51.90;;;;;;5051934;28;20426;-40
2021/01/02 11:11:36;;;;;;;14.83;11.43;;;10.50;51.30;;;;;;5052190;28;20470;-40
2021/01/02 11:14:03;;;;;;;15.40;12.10;;;10.60;51.30;;;;;;5052094;28;20443;-40
2021/01/02 11:16:33;;;;;;;16.40;12.30;;;10.70;51.20;;;;;;5052378;28;20439;-40
2021/01/02 11:18:59;;;;;;;15.47;12.10;;;10.70;51.10;;;;;;5054030;28;20510;-40
2021/01/02 11:21:25;;;;;;;18.93;14.53;;;10.80;51.30;;;;;;5052660;28;20526;-40
2021/01/02 11:23:51;;;;;;;18.27;14.33;;;10.80;51.10;;;;;;5051667;28;20224;-40
2021/01/02 11:26:17;;;;;;;18.60;12.87;;;10.80;51.00;;;;;;5049298;28;20760;-40
2021/01/02 11:28:43;;;;;;;18.67;13.43;;;10.70;51.10;;;;;;5049798;28;20434;-40
2021/01/02 11:31:09;;;;;;;18.50;14.63;;;10.60;51.70;;;;;;5052788;28;20193;-40
2021/01/02 11:33:34;;;;;;;16.40;12.40;;;10.60;51.90;;;;;;5051395;28;20524;-40
2021/01/02 11:36:00;;;;;;;16.73;12.43;;;10.30;51.00;;;;;;5051509;28;20237;-40
2021/01/02 11:38:26;;;;;;;16.47;12.60;;;10.20;51.30;;;;;;5054285;28;20192;-40
2021/01/02 11:40:52;;;;;;;19.10;14.40;;;10.10;51.30;;;;;;5052060;28;20240;-40
2021/01/02 11:43:18;;;;;;;16.93;12.90;;;10.10;51.70;;;;;;5058605;28;20664;-40
2021/01/02 11:45:47;;;;;;;15.30;11.83;;;10.00;52.00;;;;;;5050255;28;20435;-40
2021/01/02 11:48:14;;;;;;;17.70;13.00;;;10.00;51.70;;;;;;5051216;28;20582;-40
2021/01/02 11:50:40;;;;;;;16.10;13.00;;;9.80;52.90;;;;;;5051865;28;20428;-40
2021/01/02 11:53:06;;;;;;;17.40;13.33;;;9.70;53.10;;;;;;5051083;28;20479;-40
2021/01/02 11:55:32;;;;;;;15.80;12.10;;;9.60;53.20;;;;;;5049353;28;20431;-39
2021/01/02 11:57:58;;;;;;;17.10;13.07;;;9.40;54.00;;;;;;5051484;28;20431;-39
2021/01/02 12:00:24;;;;;;;18.50;13.57;;;9.50;54.20;;;;;;5051348;28;21183;-39
2021/01/02 12:02:50;;;;;;;18.33;11.60;;;9.50;53.90;;;;;;5050546;28;20435;-40
2021/01/02 12:05:15;;;;;;;17.27;12.70;;;9.50;53.90;;;;;;5051861;28;20414;-40
2021/01/02 12:07:41;;;;;;;23.33;20.87;;;9.50;53.90;;;;;;5043182;28;20192;-40
2021/01/02 12:10:07;;;;;;;17.90;15.30;;;9.50;53.90;;;;;;5051738;28;20191;-40
2021/01/02 12:12:32;;;;;;;18.13;14.10;;;9.50;54.10;;;;;;5050599;28;20682;-39
2021/01/02 12:14:58;;;;;;;17.73;13.40;;;9.50;54.20;;;;;;5068105;28;20445;-39
2021/01/02 12:17:24;;;;;;;16.90;12.97;;;9.20;54.00;;;;;;5052115;28;20200;-39
2021/01/02 12:19:49;;;;;;;17.57;13.50;;;9.00;54.60;;;;;;5051663;28;20201;-39
2021/01/02 12:22:15;;;;;;;16.10;13.47;;;9.10;54.90;;;;;;5049917;28;20192;-39
2021/01/02 12:24:42;;;;;;;20.63;14.30;;;9.20;55.10;;;;;;5049605;28;20250;-39
2021/01/02 12:27:10;;;;;;;21.67;14.57;;;9.20;55.00;;;;;;5050445;28;20192;-40
2021/01/02 12:29:37;;;;;;;21.20;14.50;;;9.30;55.20;;;;;;5051356;28;20810;-39
2021/01/02 12:32:07;;;;;;;20.47;15.40;;;9.10;55.70;;;;;;5050860;28;20562;-40
2021/01/02 12:34:35;;;;;;;21.83;14.37;;;9.10;55.60;;;;;;5050229;28;20921;-39
2021/01/02 12:37:04;;;;;;;18.73;14.07;;;9.00;55.40;;;;;;5050680;28;20490;-40
2021/01/02 12:39:31;;;;;;;19.30;13.90;;;8.90;55.40;;;;;;5047224;28;20518;-40
2021/01/02 12:41:58;;;;;;;17.73;12.77;;;8.90;55.50;;;;;;5045504;28;20471;-41
2021/01/02 12:44:25;;;;;;;19.43;13.83;;;9.00;55.50;;;;;;5048840;28;20574;-40
2021/01/02 12:46:54;;;;;;;17.10;12.90;;;8.90;55.40;;;;;;5047828;28;20454;-40
2021/01/02 12:49:23;;;;;;;19.40;13.13;;;8.80;55.20;;;;;;5050316;28;20798;-40
2021/01/02 12:51:53;;;;;;;19.40;12.80;;;8.80;55.60;;;;;;5047664;28;20463;-39
2021/01/02 12:54:19;;;;;;;16.07;12.10;;;8.60;55.90;;;;;;5041602;28;20435;-40